Terminal Aerodrome Forecast
Issued by NWS

Current Version | Previous Version | Text Only | Print | Product List | Glossary Off
Versions: 1 2 3 4 5 6 7 8 9 10 11 12 13 14 15 16 17

862
FTUS41 KPBZ 190536
TAFMGW
TAF
KMGW 190536Z 1906/2006 27020G30KT P6SM -SHRA OVC015
     FM191200 28015G25KT P6SM OVC020
     FM200400 26010G20KT P6SM BKN035=

USA.gov is the U.S. government's official web portal to all federal, state and local government web resources and services.